Time;durP1;ratioP1;P1;durP2;ratioP2;P2;SDS_P1;SDS_P2;PMS_P1;PMS_P2;Temp;Humidity;BMP_temperature;BMP_pressure;BME280_temperature;BME280_humidity;BME280_pressure;Samples;Min_cycle;Max_cycle;Signal;HPM_P1;HPM_P2
2023/04/01 00:00:36;;;;;;;26.33;21.70;;;13.70;99.90;;;;;;4589873;19;20350;-29
2023/04/01 00:02:21;;;;;;;23.50;20.60;;;13.70;99.90;;;;;;4590245;19;20086;-30
2023/04/01 00:03:57;;;;;;;26.17;21.40;;;13.70;99.90;;;;;;4589846;19;20519;-29
2023/04/01 00:05:28;;;;;;;24.27;20.85;;;13.60;99.90;;;;;;4590266;19;20011;-32
2023/04/01 00:07:00;;;;;;;24.90;20.70;;;13.60;99.90;;;;;;4590056;19;20018;-30
2023/04/01 00:08:32;;;;;;;24.73;21.10;;;13.60;99.90;;;;;;4590144;19;20018;-30
2023/04/01 00:10:05;;;;;;;;;;;13.60;99.90;;;;;;4590637;19;20070;-29
2023/04/01 00:11:38;;;;;;;25.43;20.37;;;13.60;99.90;;;;;;4590080;19;19911;-31
2023/04/01 00:13:09;;;;;;;23.40;19.38;;;13.60;99.90;;;;;;4588249;19;20519;-30
2023/04/01 00:14:41;;;;;;;25.80;21.73;;;13.60;99.90;;;;;;4589504;19;20401;-30
2023/04/01 00:16:12;;;;;;;25.10;21.73;;;13.60;99.90;;;;;;4589831;19;20110;-32
2023/04/01 00:17:43;;;;;;;25.67;21.48;;;13.60;99.90;;;;;;4589875;19;20333;-29
2023/04/01 00:19:16;;;;;;;26.13;22.00;;;13.60;99.90;;;;;;4589975;19;20014;-32
2023/04/01 00:20:48;;;;;;;27.02;21.35;;;13.60;99.90;;;;;;4589492;19;20031;-34
2023/04/01 00:22:19;;;;;;;24.77;22.10;;;13.60;99.90;;;;;;4589623;19;20010;-30
2023/04/01 00:23:51;;;;;;;25.88;21.60;;;13.60;99.90;;;;;;4590349;19;20005;-30
2023/04/01 00:25:24;;;;;;;25.73;22.97;;;13.60;99.90;;;;;;4588575;19;20002;-30
2023/04/01 00:26:55;;;;;;;25.02;20.67;;;13.60;99.90;;;;;;4589516;19;20007;-33
2023/04/01 00:28:27;;;;;;;26.23;20.88;;;13.60;99.90;;;;;;4589699;19;20015;-30
2023/04/01 00:29:58;;;;;;;25.05;21.45;;;13.60;99.90;;;;;;4590023;19;20381;-30
2023/04/01 00:31:29;;;;;;;24.90;21.80;;;13.60;99.90;;;;;;4589980;19;20084;-30
2023/04/01 00:33:01;;;;;;;24.97;21.10;;;13.60;99.90;;;;;;4588752;19;20077;-32
2023/04/01 00:34:32;;;;;;;26.23;20.65;;;13.60;99.90;;;;;;4589378;19;20070;-29
2023/04/01 00:36:08;;;;;;;24.90;20.40;;;13.50;99.90;;;;;;4590230;19;20013;-30
2023/04/01 00:37:39;;;;;;;25.03;19.80;;;13.60;99.90;;;;;;4589639;19;20015;-30
2023/04/01 00:39:11;;;;;;;26.38;20.77;;;13.60;99.90;;;;;;4589494;19;20468;-31
2023/04/01 00:40:44;;;;;;;22.00;19.53;;;13.60;99.90;;;;;;4589508;19;20022;-30
2023/04/01 00:42:16;;;;;;;21.77;18.80;;;13.60;99.90;;;;;;4589102;19;20025;-30
2023/04/01 00:43:50;;;;;;;21.80;18.57;;;13.60;99.90;;;;;;4586892;19;20014;-30
2023/04/01 00:45:35;;;;;;;23.63;19.67;;;13.60;99.90;;;;;;4588438;19;20025;-30
2023/04/01 00:47:06;;;;;;;21.53;18.47;;;13.60;99.90;;;;;;4589653;19;20094;-33
2023/04/01 00:48:51;;;;;;;21.75;18.83;;;13.50;99.90;;;;;;4589372;19;20526;-32
2023/04/01 00:50:24;;;;;;;20.63;17.57;;;13.60;99.90;;;;;;4589505;19;20011;-30
2023/04/01 00:51:56;;;;;;;22.23;17.80;;;13.50;99.90;;;;;;4588386;19;20014;-32
2023/04/01 00:53:27;;;;;;;22.70;17.43;;;13.60;99.90;;;;;;4587222;19;20035;-30
2023/04/01 00:54:59;;;;;;;20.75;18.15;;;13.60;99.90;;;;;;4588332;19;20014;-29
2023/04/01 00:56:36;;;;;;;20.90;18.47;;;13.50;99.90;;;;;;4588039;19;20036;-31
2023/04/01 00:58:14;;;;;;;21.70;19.40;;;13.50;99.90;;;;;;4588118;19;20017;-29
2023/04/01 00:59:47;;;;;;;20.40;17.93;;;13.50;99.90;;;;;;4588318;19;20032;-30
2023/04/01 01:01:20;;;;;;;22.13;18.70;;;13.50;99.90;;;;;;4592905;19;20021;-33
2023/04/01 01:02:53;;;;;;;21.80;18.07;;;13.50;99.90;;;;;;4592523;19;20014;-31
2023/04/01 01:04:29;;;;;;;21.05;17.75;;;13.50;99.90;;;;;;4592996;19;20488;-30
2023/04/01 01:06:11;;;;;;;21.10;18.80;;;13.50;99.90;;;;;;4593712;19;20010;-32
2023/04/01 01:07:53;;;;;;;19.33;17.10;;;13.50;99.90;;;;;;4593269;19;20026;-29
2023/04/01 01:09:55;;;;;;;21.80;17.40;;;13.50;99.90;;;;;;4592183;19;20011;-30
2023/04/01 01:11:35;;;;;;;19.10;16.13;;;13.50;99.90;;;;;;4590961;19;20018;-30
2023/04/01 01:13:26;;;;;;;18.43;16.30;;;13.50;99.90;;;;;;4590573;19;20022;-30
2023/04/01 01:15:08;;;;;;;18.47;15.83;;;13.50;99.90;;;;;;4591045;19;20011;-30
2023/04/01 01:16:48;;;;;;;20.97;17.10;;;13.50;99.90;;;;;;4591152;19;20007;-30
2023/04/01 01:18:23;;;;;;;19.83;17.70;;;13.50;99.90;;;;;;4590958;19;20526;-30
2023/04/01 01:20:06;;;;;;;21.53;18.77;;;13.50;99.90;;;;;;4590821;19;20485;-30
2023/04/01 01:21:58;;;;;;;21.23;19.03;;;13.50;99.90;;;;;;4590660;19;20014;-30
2023/04/01 01:23:44;;;;;;;;;;;13.50;99.90;;;;;;4591749;19;20489;-32
2023/04/01 01:25:38;;;;;;;20.37;18.00;;;13.50;99.90;;;;;;4589277;19;19914;-31
2023/04/01 01:27:11;;;;;;;19.13;16.97;;;13.50;99.90;;;;;;4590804;19;20014;-30
2023/04/01 01:29:08;;;;;;;23.63;17.97;;;13.50;99.90;;;;;;4590772;19;20040;-32
2023/04/01 01:31:31;;;;;;;21.30;18.67;;;13.50;99.90;;;;;;4590993;19;20103;-30
2023/04/01 01:33:25;;;;;;;20.88;17.60;;;13.50;99.90;;;;;;4589365;19;20548;-32
2023/04/01 01:35:19;;;;;;;19.77;17.13;;;13.50;99.90;;;;;;4590916;19;20015;-29
2023/04/01 01:36:57;;;;;;;20.63;17.63;;;13.50;99.90;;;;;;4590711;19;20556;-29
2023/04/01 01:38:31;;;;;;;20.23;18.10;;;13.50;99.90;;;;;;4590328;19;20010;-32
2023/04/01 01:40:04;;;;;;;21.53;17.87;;;13.50;99.90;;;;;;4590297;19;20032;-30
2023/04/01 01:41:35;;;;;;;20.60;18.13;;;13.50;99.90;;;;;;4590349;19;20018;-30
2023/04/01 01:43:09;;;;;;;21.73;17.92;;;13.50;99.90;;;;;;4590400;19;20006;-30
2023/04/01 01:44:42;;;;;;;21.40;18.23;;;13.50;99.90;;;;;;4590866;19;20028;-32
2023/04/01 01:46:16;;;;;;;22.20;18.73;;;13.50;99.90;;;;;;4590178;19;20011;-31
2023/04/01 01:47:48;;;;;;;20.53;18.37;;;13.50;99.90;;;;;;4590235;19;20397;-31
2023/04/01 01:49:20;;;;;;;22.67;18.97;;;13.50;99.90;;;;;;4590327;19;20014;-30
2023/04/01 01:50:53;;;;;;;21.50;19.03;;;13.40;99.90;;;;;;4590787;19;20011;-32
2023/04/01 01:52:28;;;;;;;22.37;18.47;;;13.50;99.90;;;;;;4589324;19;20018;-30
2023/04/01 01:53:59;;;;;;;24.27;19.00;;;13.50;99.90;;;;;;4588626;19;20018;-32
2023/04/01 01:55:33;;;;;;;22.10;19.70;;;13.40;99.90;;;;;;4590321;19;20034;-29
2023/04/01 01:57:07;;;;;;;20.97;18.77;;;13.50;99.90;;;;;;4591008;19;19998;-30
2023/04/01 01:58:42;;;;;;;20.57;18.17;;;13.50;99.90;;;;;;4590107;19;20019;-32
2023/04/01 02:00:15;;;;;;;22.43;19.20;;;13.50;99.90;;;;;;4590410;19;20014;-30
2023/04/01 02:01:50;;;;;;;20.43;17.80;;;13.50;99.90;;;;;;4590037;19;20420;-29
2023/04/01 02:03:22;;;;;;;21.80;18.63;;;13.50;99.90;;;;;;4590583;19;20013;-29
2023/04/01 02:04:53;;;;;;;21.73;18.00;;;13.50;99.90;;;;;;4589992;19;20006;-29
2023/04/01 02:06:26;;;;;;;20.45;18.27;;;13.50;99.90;;;;;;4590467;19;20018;-29
2023/04/01 02:08:14;;;;;;;22.00;18.38;;;13.50;99.90;;;;;;4590049;19;20488;-30
2023/04/01 02:09:47;;;;;;;22.13;18.57;;;13.50;99.90;;;;;;4592552;19;20010;-30
2023/04/01 02:11:19;;;;;;;;;;;13.50;99.90;;;;;;4593061;19;19998;-29
2023/04/01 02:12:52;;;;;;;24.33;19.20;;;13.50;99.90;;;;;;4589212;19;19919;-32
2023/04/01 02:14:28;;;;;;;21.63;19.30;;;13.50;99.90;;;;;;4590021;19;20021;-31
2023/04/01 02:16:02;;;;;;;20.37;18.13;;;13.50;99.90;;;;;;4589980;19;20021;-32
2023/04/01 02:17:33;;;;;;;21.40;18.27;;;13.50;99.90;;;;;;4589541;19;20018;-30
2023/04/01 02:19:08;;;;;;;20.80;18.60;;;13.50;99.90;;;;;;4589712;19;20538;-30
2023/04/01 02:20:41;;;;;;;22.03;18.20;;;13.50;99.90;;;;;;4589902;19;20044;-31
2023/04/01 02:22:17;;;;;;;21.80;19.50;;;13.50;99.90;;;;;;4590449;19;20006;-30
2023/04/01 02:23:50;;;;;;;22.33;19.93;;;13.50;99.90;;;;;;4590059;19;20017;-33
2023/04/01 02:25:27;;;;;;;21.77;18.67;;;13.50;99.90;;;;;;4588319;19;20010;-31
2023/04/01 02:26:58;;;;;;;20.80;18.00;;;13.50;99.90;;;;;;4589880;19;20011;-30
2023/04/01 02:28:29;;;;;;;21.40;19.20;;;13.50;99.90;;;;;;4590229;19;20014;-31
2023/04/01 02:30:01;;;;;;;20.50;18.40;;;13.50;99.90;;;;;;4589474;19;20011;-29
2023/04/01 02:31:32;;;;;;;20.70;18.60;;;13.50;99.90;;;;;;4589532;19;20010;-31
2023/04/01 02:33:04;;;;;;;22.13;19.75;;;13.50;99.90;;;;;;4589138;19;20022;-30
2023/04/01 02:34:36;;;;;;;20.83;18.67;;;13.50;99.90;;;;;;4589625;19;20014;-29
2023/04/01 02:36:14;;;;;;;22.00;19.30;;;13.50;99.90;;;;;;4589412;19;20010;-29
2023/04/01 02:37:48;;;;;;;21.37;18.97;;;13.50;99.90;;;;;;4589284;19;20027;-30
2023/04/01 02:39:20;;;;;;;22.90;20.60;;;13.50;99.90;;;;;;4588977;19;20017;-29
2023/04/01 02:41:00;;;;;;;23.57;21.07;;;13.50;99.90;;;;;;4589532;19;20021;-29
2023/04/01 02:42:31;;;;;;;22.10;18.83;;;13.50;99.90;;;;;;4589069;19;20536;-29
2023/04/01 02:44:04;;;;;;;23.73;20.45;;;13.50;99.90;;;;;;4590208;19;20014;-31
2023/04/01 02:45:35;;;;;;;22.50;20.17;;;13.50;99.90;;;;;;4591583;19;20020;-29
2023/04/01 02:47:09;;;;;;;22.25;19.48;;;13.50;99.90;;;;;;4592024;19;20461;-30
2023/04/01 02:48:41;;;;;;;23.98;21.38;;;13.50;99.90;;;;;;4591302;19;20066;-33
2023/04/01 02:50:14;;;;;;;22.63;20.17;;;13.50;99.90;;;;;;4591775;19;20017;-30
2023/04/01 02:51:45;;;;;;;23.30;20.83;;;13.50;99.90;;;;;;4591995;19;20023;-32
2023/04/01 02:53:17;;;;;;;23.30;20.80;;;13.50;99.90;;;;;;4590582;19;20452;-29
2023/04/01 02:54:49;;;;;;;24.23;21.48;;;13.50;99.90;;;;;;4591135;19;20362;-29
2023/04/01 02:56:21;;;;;;;24.80;21.23;;;13.50;99.90;;;;;;4591200;19;20353;-31
2023/04/01 02:57:53;;;;;;;24.25;21.63;;;13.50;99.90;;;;;;4591476;19;20002;-30
2023/04/01 02:59:25;;;;;;;24.37;21.83;;;13.50;99.90;;;;;;4591787;19;20002;-30
2023/04/01 03:00:56;;;;;;;24.20;21.60;;;13.50;99.90;;;;;;4591189;19;20018;-30
2023/04/01 03:02:29;;;;;;;24.60;21.47;;;13.50;99.90;;;;;;4591365;19;20014;-29
2023/04/01 03:04:02;;;;;;;22.63;20.30;;;13.50;99.90;;;;;;4591537;19;20025;-29
2023/04/01 03:05:35;;;;;;;23.73;20.87;;;13.50;99.90;;;;;;4591136;19;20026;-34
2023/04/01 03:07:09;;;;;;;23.63;19.85;;;13.50;99.90;;;;;;4591048;19;20034;-31
2023/04/01 03:08:41;;;;;;;25.43;21.07;;;13.50;99.90;;;;;;4591124;19;20014;-30
2023/04/01 03:10:13;;;;;;;21.93;19.60;;;13.50;99.90;;;;;;4591484;19;20349;-29
2023/04/01 03:11:45;;;;;;;23.57;20.97;;;13.50;99.90;;;;;;4590796;19;20353;-30
2023/04/01 03:13:16;;;;;;;22.23;19.83;;;13.50;99.90;;;;;;4588015;19;20013;-30
2023/04/01 03:14:49;;;;;;;23.20;20.63;;;13.50;99.90;;;;;;4589924;19;20013;-30
2023/04/01 03:16:22;;;;;;;22.60;20.20;;;13.50;99.90;;;;;;4591419;19;20015;-29
2023/04/01 03:17:55;;;;;;;22.43;20.13;;;13.50;99.90;;;;;;4589632;19;20006;-30
2023/04/01 03:19:28;;;;;;;21.67;19.37;;;13.50;99.90;;;;;;4590312;19;20010;-31
2023/04/01 03:21:22;;;;;;;23.47;19.80;;;13.50;99.90;;;;;;4590775;19;20366;-30
2023/04/01 03:22:54;;;;;;;22.80;19.80;;;13.50;99.90;;;;;;4589401;19;20042;-29
2023/04/01 03:24:25;;;;;;;26.25;22.20;;;13.50;99.90;;;;;;4589704;19;20015;-33
2023/04/01 03:25:58;;;;;;;23.27;20.67;;;13.40;99.90;;;;;;4590118;19;20035;-30
2023/04/01 03:27:31;;;;;;;21.07;18.63;;;13.40;99.90;;;;;;4590978;19;20007;-31
2023/04/01 03:29:02;;;;;;;19.33;16.23;;;13.40;99.90;;;;;;4590937;19;20013;-29
2023/04/01 03:30:35;;;;;;;18.92;16.60;;;13.40;99.90;;;;;;4591399;19;20023;-35
2023/04/01 03:32:06;;;;;;;17.27;15.38;;;13.40;99.90;;;;;;4590448;19;20363;-31
2023/04/01 03:33:37;;;;;;;20.55;17.88;;;13.40;99.90;;;;;;4590115;19;20024;-30
2023/04/01 03:35:10;;;;;;;;;;;13.40;99.90;;;;;;4591580;19;20041;-30
2023/04/01 03:36:41;;;;;;;17.45;15.55;;;13.40;99.90;;;;;;4590418;19;19915;-30
2023/04/01 03:38:12;;;;;;;;;;;13.40;99.90;;;;;;4591626;19;20013;-29
2023/04/01 03:39:45;;;;;;;18.40;15.70;;;13.40;99.90;;;;;;4590497;19;19910;-29
2023/04/01 03:41:18;;;;;;;16.50;14.73;;;13.40;99.90;;;;;;4590890;19;20479;-29
2023/04/01 03:42:50;;;;;;;17.02;15.23;;;13.30;99.90;;;;;;4590248;19;20017;-32
2023/04/01 03:44:23;;;;;;;16.87;15.17;;;13.40;99.90;;;;;;4590749;19;20464;-32
2023/04/01 03:45:57;;;;;;;19.70;16.87;;;13.30;99.90;;;;;;4590514;19;20403;-30
2023/04/01 03:47:30;;;;;;;17.37;15.53;;;13.40;99.90;;;;;;4589598;19;20476;-31
2023/04/01 03:49:11;;;;;;;16.40;14.27;;;13.40;99.90;;;;;;4589658;19;20352;-30
2023/04/01 03:50:44;;;;;;;17.50;14.73;;;13.40;99.90;;;;;;4588951;19;20010;-31
2023/04/01 03:52:15;;;;;;;16.52;14.15;;;13.30;99.90;;;;;;4588433;19;20014;-31
2023/04/01 03:53:49;;;;;;;14.60;13.00;;;13.30;99.90;;;;;;4588836;19;20014;-30
2023/04/01 03:55:22;;;;;;;17.30;14.00;;;13.30;99.90;;;;;;4589691;19;20007;-30
2023/04/01 03:56:54;;;;;;;15.77;13.63;;;13.30;99.90;;;;;;4590298;19;20027;-32
2023/04/01 03:58:26;;;;;;;17.37;15.57;;;13.30;99.90;;;;;;4590505;19;20002;-30
2023/04/01 03:59:57;;;;;;;18.52;15.85;;;13.30;99.90;;;;;;4590703;19;20010;-30
2023/04/01 04:01:30;;;;;;;17.90;15.57;;;13.30;99.90;;;;;;4589929;19;20349;-30
2023/04/01 04:03:02;;;;;;;17.20;15.40;;;13.30;99.90;;;;;;4589918;19;20090;-30
2023/04/01 04:04:35;;;;;;;18.03;16.13;;;13.20;99.90;;;;;;4590573;19;20006;-33
2023/04/01 04:06:10;;;;;;;21.02;16.67;;;13.20;99.90;;;;;;4590339;19;20006;-30
2023/04/01 04:07:43;;;;;;;19.20;16.37;;;13.20;99.90;;;;;;4588749;19;20011;-29
2023/04/01 04:09:16;;;;;;;18.30;16.30;;;13.20;99.90;;;;;;4589722;19;20015;-31
2023/04/01 04:10:48;;;;;;;;;;;13.20;99.90;;;;;;4591541;19;20008;-31
2023/04/01 04:12:19;;;;;;;17.83;15.23;;;13.20;99.90;;;;;;4588937;19;19915;-30
2023/04/01 04:13:52;;;;;;;17.40;15.03;;;13.20;99.90;;;;;;4588498;19;20082;-29
2023/04/01 04:15:25;;;;;;;17.33;15.47;;;13.20;99.90;;;;;;4590213;19;20007;-30
2023/04/01 04:16:57;;;;;;;17.45;14.70;;;13.20;99.90;;;;;;4589625;19;20369;-29
2023/04/01 04:18:29;;;;;;;16.70;14.90;;;13.20;99.90;;;;;;4590224;19;20011;-32
2023/04/01 04:20:00;;;;;;;16.77;15.00;;;13.20;99.90;;;;;;4588796;19;20487;-30
2023/04/01 04:21:32;;;;;;;18.38;14.93;;;13.20;99.90;;;;;;4589427;19;20035;-30
2023/04/01 04:23:04;;;;;;;17.17;14.87;;;13.20;99.90;;;;;;4588858;19;20010;-34
2023/04/01 04:24:36;;;;;;;16.27;14.13;;;13.20;99.90;;;;;;4588553;19;20010;-32
2023/04/01 04:26:12;;;;;;;16.57;14.77;;;13.20;99.90;;;;;;4589976;19;20325;-30
2023/04/01 04:27:43;;;;;;;18.77;15.00;;;13.30;99.90;;;;;;4590288;19;20021;-31
2023/04/01 04:29:15;;;;;;;18.17;16.13;;;13.20;99.90;;;;;;4590315;19;20015;-32
2023/04/01 04:30:47;;;;;;;20.93;17.00;;;13.30;99.90;;;;;;4589755;19;20396;-30
2023/04/01 04:32:20;;;;;;;22.40;19.30;;;13.30;99.90;;;;;;4588344;19;20014;-30
2023/04/01 04:33:53;;;;;;;25.53;20.83;;;13.30;99.90;;;;;;4588167;19;20022;-30
2023/04/01 04:35:25;;;;;;;24.67;19.87;;;13.30;99.90;;;;;;4592482;19;20018;-31
2023/04/01 04:36:56;;;;;;;24.35;19.90;;;13.20;99.90;;;;;;4593991;19;20024;-30
2023/04/01 04:38:29;;;;;;;20.50;17.77;;;13.30;99.90;;;;;;4594086;19;20352;-30
2023/04/01 04:40:01;;;;;;;20.27;16.70;;;13.30;99.90;;;;;;4594341;19;20014;-29
2023/04/01 04:41:33;;;;;;;19.27;16.55;;;13.20;99.90;;;;;;4594323;19;20495;-30
2023/04/01 04:43:05;;;;;;;17.93;15.83;;;13.20;99.90;;;;;;4592896;19;20011;-31
2023/04/01 04:44:37;;;;;;;17.63;15.60;;;13.30;99.90;;;;;;4593349;19;20370;-30
2023/04/01 04:46:09;;;;;;;16.90;15.07;;;13.30;99.90;;;;;;4594513;19;20010;-31
2023/04/01 04:47:40;;;;;;;17.27;15.10;;;13.30;99.90;;;;;;4594487;19;20013;-30
2023/04/01 04:49:12;;;;;;;16.70;14.90;;;13.30;99.90;;;;;;4593743;19;20035;-32
2023/04/01 04:50:48;;;;;;;18.17;15.13;;;13.30;99.90;;;;;;4594136;19;20022;-30
2023/04/01 04:52:19;;;;;;;18.05;16.15;;;13.30;99.90;;;;;;4591993;19;20022;-31
2023/04/01 04:53:52;;;;;;;19.20;17.10;;;13.30;99.90;;;;;;4592007;19;20365;-30
2023/04/01 04:55:23;;;;;;;19.63;17.35;;;13.30;99.90;;;;;;4593937;19;20044;-29
2023/04/01 04:56:56;;;;;;;20.97;18.53;;;13.30;99.90;;;;;;4567198;19;20006;-31
2023/04/01 04:58:27;;;;;;;20.40;17.73;;;13.30;99.90;;;;;;4593022;19;20007;-29
2023/04/01 05:00:00;;;;;;;19.40;17.27;;;13.30;99.90;;;;;;4592513;19;20349;-29
2023/04/01 05:01:33;;;;;;;19.42;17.38;;;13.30;99.90;;;;;;4593503;19;20387;-30
2023/04/01 05:03:04;;;;;;;19.60;17.50;;;13.30;99.90;;;;;;4590059;19;20038;-33
2023/04/01 05:04:36;;;;;;;21.80;19.48;;;13.30;99.90;;;;;;4592411;19;20014;-30
2023/04/01 05:06:08;;;;;;;20.90;18.70;;;13.30;99.90;;;;;;4592609;19;20011;-30
2023/04/01 05:07:40;;;;;;;21.40;18.33;;;13.30;99.90;;;;;;4590744;19;20014;-31
2023/04/01 05:09:12;;;;;;;21.08;18.83;;;13.30;99.90;;;;;;4594451;19;20025;-31
2023/04/01 05:10:43;;;;;;;;;;;13.30;99.90;;;;;;4592769;19;20015;-33
2023/04/01 05:12:14;;;;;;;23.80;19.57;;;13.30;99.90;;;;;;4593901;19;19914;-30
2023/04/01 05:13:46;;;;;;;21.73;18.10;;;13.30;99.90;;;;;;4591521;19;20500;-30
2023/04/01 05:15:17;;;;;;;18.15;16.23;;;13.30;99.90;;;;;;4591055;19;20015;-30
2023/04/01 05:16:50;;;;;;;20.17;16.73;;;13.30;99.90;;;;;;4591299;19;20030;-31
2023/04/01 05:18:23;;;;;;;21.80;17.50;;;13.30;99.90;;;;;;4592809;19;20371;-30
2023/04/01 05:19:54;;;;;;;19.70;17.35;;;13.30;99.90;;;;;;4592672;19;20022;-29
2023/04/01 05:21:25;;;;;;;19.63;16.65;;;13.30;99.90;;;;;;4594534;19;20011;-32
2023/04/01 05:22:57;;;;;;;18.00;15.10;;;13.30;99.90;;;;;;4592823;19;20021;-31
2023/04/01 05:24:28;;;;;;;20.65;15.77;;;13.30;99.90;;;;;;4593135;19;20476;-29
2023/04/01 05:26:06;;;;;;;17.27;14.50;;;13.30;99.90;;;;;;4593383;19;20456;-31
2023/04/01 05:27:37;;;;;;;17.60;14.77;;;13.30;99.90;;;;;;4593893;19;20361;-33
2023/04/01 05:29:08;;;;;;;18.95;15.70;;;13.30;99.90;;;;;;4590407;19;20488;-31
2023/04/01 05:30:41;;;;;;;19.70;15.40;;;13.30;99.90;;;;;;4591924;19;20078;-30
2023/04/01 05:32:12;;;;;;;18.07;14.77;;;13.20;99.90;;;;;;4591779;19;20029;-30
2023/04/01 05:33:44;;;;;;;18.30;15.75;;;13.30;99.90;;;;;;4591619;19;20402;-30
2023/04/01 05:35:15;;;;;;;19.70;15.38;;;13.30;99.90;;;;;;4591695;19;20488;-30
2023/04/01 05:36:46;;;;;;;16.88;14.20;;;13.30;99.90;;;;;;4591324;19;20027;-32
2023/04/01 05:38:17;;;;;;;14.70;13.20;;;13.30;99.90;;;;;;4590850;19;20026;-32
2023/04/01 05:39:49;;;;;;;15.02;12.38;;;13.30;99.90;;;;;;4591922;19;20042;-30
2023/04/01 05:41:20;;;;;;;14.23;12.02;;;13.30;99.90;;;;;;4591592;19;20022;-30
2023/04/01 05:42:51;;;;;;;11.98;10.43;;;13.30;99.90;;;;;;4590764;19;20007;-30
2023/04/01 05:44:23;;;;;;;11.05;9.55;;;13.20;99.90;;;;;;4591160;19;20334;-30
2023/04/01 05:45:54;;;;;;;11.85;10.65;;;13.20;99.90;;;;;;4592058;19;20074;-31
2023/04/01 05:47:26;;;;;;;11.17;8.40;;;13.20;99.90;;;;;;4591688;19;20492;-30
2023/04/01 05:48:57;;;;;;;;;;;13.20;99.90;;;;;;4592822;19;20099;-30
2023/04/01 05:50:28;;;;;;;12.90;10.07;;;13.20;99.90;;;;;;4592853;19;20325;-31
2023/04/01 05:52:02;;;;;;;10.63;8.77;;;13.20;99.90;;;;;;4590876;19;20714;-30
2023/04/01 05:53:33;;;;;;;17.88;12.00;;;13.20;99.90;;;;;;4592157;19;20522;-30
2023/04/01 05:55:05;;;;;;;14.80;9.80;;;13.10;99.90;;;;;;4592371;19;20022;-29
2023/04/01 05:56:36;;;;;;;;;;;13.10;99.90;;;;;;4593942;19;20029;-29
2023/04/01 05:58:07;;;;;;;11.43;8.70;;;13.10;99.90;;;;;;4592479;19;19923;-34
2023/04/01 05:59:39;;;;;;;16.40;11.05;;;13.10;99.90;;;;;;4592667;19;20974;-30
2023/04/01 06:01:12;;;;;;;11.47;8.13;;;13.10;99.90;;;;;;4592236;19;20094;-30
2023/04/01 06:02:46;;;;;;;20.07;12.83;;;13.20;99.90;;;;;;4592752;19;20011;-29
2023/04/01 06:04:17;;;;;;;12.57;8.47;;;13.20;99.90;;;;;;4591332;19;20010;-31
2023/04/01 06:05:50;;;;;;;12.77;8.63;;;13.20;99.90;;;;;;4591681;19;20014;-30
2023/04/01 06:07:22;;;;;;;12.90;7.47;;;13.30;99.90;;;;;;4591646;19;20022;-32
2023/04/01 06:08:56;;;;;;;9.47;7.50;;;13.30;99.90;;;;;;4592778;19;20018;-31
2023/04/01 06:10:52;;;;;;;9.17;7.23;;;13.20;99.90;;;;;;4591740;19;20092;-30
2023/04/01 06:12:44;;;;;;;8.00;6.63;;;13.20;99.90;;;;;;4591006;19;20378;-30
2023/04/01 06:14:55;;;;;;;10.30;7.95;;;13.30;99.90;;;;;;4588811;19;20019;-30
2023/04/01 06:16:31;;;;;;;7.87;6.27;;;13.30;99.90;;;;;;4588902;19;20041;-30
2023/04/01 06:18:30;;;;;;;7.25;5.38;;;13.30;99.90;;;;;;4590281;19;20015;-30
2023/04/01 06:20:14;;;;;;;7.97;6.57;;;13.40;99.90;;;;;;4589033;19;20096;-30
2023/04/01 06:21:52;;;;;;;7.10;6.23;;;13.40;99.90;;;;;;4589655;19;20492;-31
2023/04/01 06:23:24;;;;;;;7.10;6.07;;;13.40;99.90;;;;;;4590434;19;20025;-30
2023/04/01 06:25:17;;;;;;;8.20;5.33;;;13.30;99.90;;;;;;4588080;19;20698;-32
2023/04/01 06:27:02;;;;;;;7.47;5.73;;;13.40;99.90;;;;;;4590304;19;20010;-30
2023/04/01 06:28:43;;;;;;;8.37;5.73;;;13.40;99.90;;;;;;4590359;19;20119;-33
2023/04/01 06:30:30;;;;;;;7.72;6.30;;;13.40;99.90;;;;;;4589780;19;20035;-29
2023/04/01 06:32:24;;;;;;;6.57;4.90;;;13.40;99.90;;;;;;4589099;19;20013;-33
2023/04/01 06:34:13;;;;;;;6.82;5.15;;;13.30;99.90;;;;;;4588561;19;20014;-33
2023/04/01 06:35:50;;;;;;;8.53;6.17;;;13.40;99.90;;;;;;4590154;19;20014;-33
2023/04/01 06:37:36;;;;;;;7.73;6.03;;;13.40;99.90;;;;;;4589466;19;20154;-30
2023/04/01 06:39:26;;;;;;;8.67;7.77;;;13.30;99.90;;;;;;4589440;19;20358;-29
2023/04/01 06:41:40;;;;;;;8.83;7.63;;;12.70;99.90;;;;;;4590267;19;20019;-30
2023/04/01 06:43:21;;;;;;;9.33;7.57;;;11.20;99.90;;;;;;4588571;19;20052;-32
2023/04/01 06:45:11;;;;;;;10.43;8.87;;;10.60;99.90;;;;;;4588691;19;21133;-30
2023/04/01 06:46:42;;;;;;;12.20;10.00;;;10.40;99.90;;;;;;4588431;19;20476;-30
2023/04/01 06:48:28;;;;;;;12.13;10.83;;;10.30;99.90;;;;;;4589364;19;20469;-29
2023/04/01 06:50:36;;;;;;;13.17;10.90;;;10.20;99.90;;;;;;4588135;19;20461;-29
2023/04/01 06:52:46;;;;;;;13.03;11.53;;;10.20;99.90;;;;;;4587382;19;20473;-30
2023/04/01 06:54:18;;;;;;;10.90;9.43;;;10.20;99.90;;;;;;4588027;19;20550;-32
2023/04/01 06:56:04;;;;;;;11.68;9.90;;;10.10;99.90;;;;;;4588216;19;20621;-29
2023/04/01 06:57:41;;;;;;;11.97;10.40;;;10.20;99.90;;;;;;4587692;19;20139;-32
2023/04/01 06:59:18;;;;;;;11.67;9.73;;;10.10;99.90;;;;;;4588137;19;20568;-32
2023/04/01 07:00:52;;;;;;;10.10;8.77;;;10.10;99.90;;;;;;4588729;19;20523;-30
2023/04/01 07:02:23;;;;;;;10.73;8.90;;;10.10;99.90;;;;;;4587720;19;20496;-28
2023/04/01 07:04:00;;;;;;;11.13;8.85;;;10.10;99.90;;;;;;4588064;19;20591;-31
2023/04/01 07:05:33;;;;;;;10.27;9.20;;;10.10;99.90;;;;;;4588951;19;20022;-28
2023/04/01 07:07:13;;;;;;;12.75;10.93;;;10.00;99.90;;;;;;4587643;19;20541;-30
2023/04/01 07:08:44;;;;;;;13.20;10.60;;;10.10;99.90;;;;;;4588412;19;20014;-30
2023/04/01 07:10:36;;;;;;;14.93;12.63;;;10.00;99.90;;;;;;4587809;19;20491;-31
2023/04/01 07:12:21;;;;;;;16.83;13.98;;;10.00;99.90;;;;;;4587235;19;20033;-32
2023/04/01 07:13:54;;;;;;;15.97;13.23;;;10.00;99.90;;;;;;4586097;19;20567;-30
2023/04/01 07:15:34;;;;;;;14.70;12.03;;;10.00;99.90;;;;;;4587460;19;20964;-30
2023/04/01 07:17:14;;;;;;;16.07;12.57;;;10.00;99.90;;;;;;4587985;19;20456;-31
2023/04/01 07:19:05;;;;;;;15.60;13.47;;;10.00;99.90;;;;;;4588449;19;20525;-31
2023/04/01 07:20:37;;;;;;;17.40;14.90;;;10.00;99.90;;;;;;4588909;19;20479;-34
2023/04/01 07:22:28;;;;;;;16.73;14.95;;;9.90;99.90;;;;;;4587319;19;20473;-29
2023/04/01 07:24:05;;;;;;;16.83;14.18;;;9.90;99.90;;;;;;4588545;19;20533;-33
2023/04/01 07:25:38;;;;;;;18.03;15.10;;;9.90;99.90;;;;;;4586242;19;20074;-30
2023/04/01 07:27:10;;;;;;;19.43;15.90;;;9.90;99.90;;;;;;4588256;19;20461;-32
2023/04/01 07:28:43;;;;;;;17.30;14.10;;;9.90;99.90;;;;;;4588469;19;20477;-29
2023/04/01 07:30:18;;;;;;;16.50;14.75;;;9.90;99.90;;;;;;4588337;19;20453;-30
2023/04/01 07:31:54;;;;;;;15.03;12.97;;;9.90;99.90;;;;;;4589013;19;20500;-32
2023/04/01 07:33:58;;;;;;;16.80;14.60;;;9.90;99.90;;;;;;4589019;19;20501;-30
2023/04/01 07:35:41;;;;;;;17.57;14.03;;;10.00;99.90;;;;;;4591017;19;20433;-30
2023/04/01 07:37:20;;;;;;;14.70;13.18;;;9.90;99.90;;;;;;4589080;19;20437;-31
2023/04/01 07:39:05;;;;;;;16.40;14.67;;;9.90;99.90;;;;;;4589409;19;20070;-31
2023/04/01 07:40:39;;;;;;;15.93;13.60;;;9.90;99.90;;;;;;4589861;19;20457;-31
2023/04/01 07:42:25;;;;;;;15.57;13.80;;;9.90;99.90;;;;;;4590649;19;20461;-31
2023/04/01 07:44:30;;;;;;;14.67;11.30;;;9.90;99.90;;;;;;4589872;19;20456;-33
2023/04/01 07:46:32;;;;;;;14.97;10.90;;;10.00;99.90;;;;;;4589563;19;20574;-30
2023/04/01 07:48:14;;;;;;;13.30;9.60;;;10.40;99.90;;;;;;4589512;19;20775;-29
2023/04/01 07:49:54;;;;;;;11.50;8.73;;;10.80;99.90;;;;;;4588341;19;20456;-31
2023/04/01 07:51:48;;;;;;;11.67;9.10;;;11.20;99.90;;;;;;4590800;19;20502;-29
2023/04/01 07:53:25;;;;;;;12.23;9.67;;;11.50;99.90;;;;;;4589411;19;20007;-30
2023/04/01 07:55:03;;;;;;;11.63;8.47;;;11.70;99.90;;;;;;4588633;19;20513;-31
2023/04/01 07:56:49;;;;;;;12.43;9.00;;;12.00;99.90;;;;;;4588890;19;20030;-30
2023/04/01 07:58:46;;;;;;;11.40;9.20;;;12.10;99.90;;;;;;4589358;19;20014;-29
2023/04/01 08:00:19;;;;;;;13.13;9.97;;;12.30;99.90;;;;;;4587609;19;20030;-30
2023/04/01 08:02:15;;;;;;;12.13;9.77;;;12.40;99.90;;;;;;4586772;19;20018;-30
2023/04/01 08:04:14;;;;;;;11.73;9.27;;;12.50;99.90;;;;;;4588974;19;20034;-29
2023/04/01 08:06:00;;;;;;;15.20;10.47;;;12.60;99.90;;;;;;4590353;19;20003;-31
2023/04/01 08:07:56;;;;;;;12.07;8.90;;;12.60;99.90;;;;;;4589313;19;20037;-31
2023/04/01 08:09:40;;;;;;;12.03;9.53;;;12.70;99.90;;;;;;4592349;19;20074;-30
2023/04/01 08:11:20;;;;;;;13.47;10.27;;;12.80;99.90;;;;;;4594189;19;20018;-30
2023/04/01 08:13:12;;;;;;;13.00;10.03;;;12.70;99.90;;;;;;4594163;19;20007;-31